createdAt,value
2018-02-25T00:02:06.165Z,98939.97
2018-02-25T00:04:32.494Z,98941.37
2018-02-25T00:06:58.994Z,98941.97
2018-02-25T00:09:25.299Z,98949.44
2018-02-25T00:11:51.896Z,98949.02
2018-02-25T00:14:18.161Z,98949.70
2018-02-25T00:16:44.517Z,98942.67
2018-02-25T00:19:10.904Z,98943.66
2018-02-25T00:21:37.180Z,98943.77
2018-02-25T00:24:03.873Z,98943.77
2018-02-25T00:26:30.147Z,98945.80
2018-02-25T00:28:56.479Z,98949.53
2018-02-25T00:31:22.863Z,98952.17
2018-02-25T00:33:49.086Z,98951.19
2018-02-25T00:36:15.675Z,98944.84
2018-02-25T00:38:41.958Z,98946.80
2018-02-25T00:41:08.262Z,98945.29
2018-02-25T00:43:34.778Z,98947.75
2018-02-25T00:46:01.100Z,98950.22
2018-02-25T00:48:27.720Z,98946.50
2018-02-25T00:50:53.973Z,98944.53
2018-02-25T00:53:20.276Z,98952.23
2018-02-25T00:55:46.623Z,98956.36
2018-02-25T00:58:12.895Z,98950.64
2018-02-25T01:00:39.522Z,98946.83
2018-02-25T01:03:05.795Z,98945.88
2018-02-25T01:05:32.068Z,98950.97
2018-02-25T01:07:58.528Z,98945.20
2018-02-25T01:10:24.791Z,98947.67
2018-02-25T01:12:51.406Z,98952.47
2018-02-25T01:15:17.695Z,98948.92
2018-02-25T01:17:43.968Z,98948.82
2018-02-25T01:20:10.463Z,98953.66
2018-02-25T01:22:36.774Z,98946.30
2018-02-25T01:25:03.325Z,98948.82
2018-02-25T01:27:29.576Z,98946.22
2018-02-25T01:29:55.873Z,98943.81
2018-02-25T01:32:22.416Z,98941.71
2018-02-25T01:34:48.652Z,98936.61
2018-02-25T01:37:15.192Z,98940.27
2018-02-25T01:39:41.455Z,98939.15
2018-02-25T01:42:07.696Z,98929.38
2018-02-25T01:44:34.313Z,98936.45
2018-02-25T01:47:00.535Z,98933.75
2018-02-25T01:49:26.988Z,98931.84
2018-02-25T01:51:53.284Z,98928.92
2018-02-25T01:54:19.505Z,98925.27
2018-02-25T01:56:46.109Z,98921.32
2018-02-25T01:59:12.392Z,98919.08
2018-02-25T02:01:38.798Z,98912.63
2018-02-25T02:04:05.244Z,98914.41
2018-02-25T02:06:31.584Z,98918.03
2018-02-25T02:08:58.139Z,98913.46
2018-02-25T02:11:24.363Z,98926.63
2018-02-25T02:13:50.818Z,98922.18
2018-02-25T02:16:17.075Z,98921.55
2018-02-25T02:18:43.306Z,98920.77
2018-02-25T02:21:09.988Z,98922.80
2018-02-25T02:23:36.261Z,98922.30
2018-02-25T02:26:02.679Z,98922.34
2018-02-25T02:28:29.012Z,98924.77
2018-02-25T02:30:55.339Z,98928.75
2018-02-25T02:33:21.948Z,98930.59
2018-02-25T02:35:48.235Z,98925.46
2018-02-25T02:38:14.567Z,98926.46
2018-02-25T02:40:40.935Z,98927.98
2018-02-25T02:43:07.228Z,98930.45
2018-02-25T02:45:33.854Z,98928.27
2018-02-25T02:48:00.126Z,98933.10
2018-02-25T02:50:26.527Z,98927.94
2018-02-25T02:52:52.921Z,98928.24
2018-02-25T02:55:19.172Z,98931.52
2018-02-25T02:57:45.817Z,98926.23
2018-02-25T03:00:12.080Z,98927.84
2018-02-25T03:02:39.672Z,98927.11
2018-02-25T03:05:05.993Z,98925.49
2018-02-25T03:07:32.284Z,98929.19
2018-02-25T03:09:58.733Z,98923.06
2018-02-25T03:12:24.963Z,98928.12
2018-02-25T03:14:51.572Z,98923.91
2018-02-25T03:17:17.832Z,98921.53
2018-02-25T03:19:44.097Z,98919.77
2018-02-25T03:22:10.535Z,98914.38
2018-02-25T03:24:36.811Z,98917.95
2018-02-25T03:27:03.315Z,98917.44
2018-02-25T03:29:29.656Z,98917.19
2018-02-25T03:31:55.899Z,98915.89
2018-02-25T03:34:22.456Z,98913.36
2018-02-25T03:36:48.728Z,98917.75
2018-02-25T03:39:15.263Z,98911.73
2018-02-25T03:41:41.536Z,98914.55
2018-02-25T03:44:07.775Z,98916.22
2018-02-25T03:46:34.324Z,98921.37
2018-02-25T03:49:00.557Z,98921.77
2018-02-25T03:51:27.106Z,98919.70
2018-02-25T03:53:53.359Z,98926.99
2018-02-25T03:56:19.639Z,98924.06
2018-02-25T03:58:46.197Z,98922.77
2018-02-25T04:01:12.431Z,98922.20
2018-02-25T04:03:38.837Z,98918.79
2018-02-25T04:06:05.515Z,98921.20
2018-02-25T04:08:31.767Z,98922.20
2018-02-25T04:10:58.295Z,98926.01
2018-02-25T04:13:24.560Z,98922.88
2018-02-25T04:15:51.034Z,98915.59
2018-02-25T04:18:17.331Z,98921.06
2018-02-25T04:20:43.611Z,98930.14
2018-02-25T04:23:10.044Z,98924.52
2018-02-25T04:25:36.294Z,98922.27
2018-02-25T04:28:02.628Z,98922.34
2018-02-25T04:30:28.975Z,98923.77
2018-02-25T04:32:55.347Z,98916.02
2018-02-25T04:35:21.967Z,98920.48
2018-02-25T04:37:48.220Z,98918.80
2018-02-25T04:40:14.566Z,98921.17
2018-02-25T04:42:40.943Z,98909.82
2018-02-25T04:45:07.191Z,98903.80
2018-02-25T04:47:33.820Z,98906.13
2018-02-25T04:50:00.085Z,98907.56
2018-02-25T04:52:26.352Z,98902.38
2018-02-25T04:54:52.754Z,98909.52
2018-02-25T04:57:19.005Z,98905.23
2018-02-25T04:59:45.503Z,98910.22
2018-02-25T05:02:11.780Z,98905.59
2018-02-25T05:04:38.036Z,98907.57
2018-02-25T05:07:04.664Z,98898.11
2018-02-25T05:09:30.915Z,98903.34
2018-02-25T05:11:57.484Z,98907.62
2018-02-25T05:14:23.763Z,98911.13
2018-02-25T05:16:50.032Z,98912.09
2018-02-25T05:19:16.572Z,98906.11
2018-02-25T05:21:42.790Z,98911.37
2018-02-25T05:24:09.320Z,98912.64
2018-02-25T05:26:35.581Z,98908.20
2018-02-25T05:29:01.896Z,98907.14
2018-02-25T05:31:28.500Z,98912.48
2018-02-25T05:33:54.780Z,98916.16
2018-02-25T05:36:21.188Z,98918.02
2018-02-25T05:38:47.456Z,98922.00
2018-02-25T05:41:13.703Z,98921.17
2018-02-25T05:43:40.271Z,98919.11
2018-02-25T05:46:06.516Z,98916.03
2018-02-25T05:48:32.895Z,98916.42
2018-02-25T05:50:59.298Z,98923.26
2018-02-25T05:53:25.549Z,98923.70
2018-02-25T05:55:52.151Z,98920.54
2018-02-25T05:58:18.405Z,98921.56
2018-02-25T06:00:44.742Z,98923.70
2018-02-25T06:03:11.108Z,98928.13
2018-02-25T06:05:37.388Z,98925.84
2018-02-25T06:08:04.043Z,98932.28
2018-02-25T06:10:30.321Z,98930.38
2018-02-25T06:12:56.624Z,98929.66
2018-02-25T06:15:23.016Z,98932.12
2018-02-25T06:17:49.330Z,98935.25
2018-02-25T06:20:15.966Z,98927.70
2018-02-25T06:22:42.255Z,98935.11
2018-02-25T06:25:08.564Z,98936.45
2018-02-25T06:27:34.980Z,98941.36
2018-02-25T06:30:01.262Z,98937.45
2018-02-25T06:32:27.883Z,98942.05
2018-02-25T06:34:54.216Z,98935.16
2018-02-25T06:37:20.498Z,98932.98
2018-02-25T06:39:46.903Z,98938.20
2018-02-25T06:42:13.144Z,98940.14
2018-02-25T06:44:39.808Z,98932.33
2018-02-25T06:47:06.047Z,98941.70
2018-02-25T06:49:32.323Z,98941.64
2018-02-25T06:51:58.744Z,98939.09
2018-02-25T06:54:25.009Z,98946.96
2018-02-25T06:56:51.264Z,98939.64
2018-02-25T06:59:17.496Z,98932.09
2018-02-25T07:01:43.746Z,98934.02
2018-02-25T07:04:10.002Z,98933.01
2018-02-25T07:06:36.261Z,98934.22
2018-02-25T07:09:02.592Z,98933.45
2018-02-25T07:11:28.898Z,98937.46
2018-02-25T07:13:55.140Z,98947.98
2018-02-25T07:16:21.476Z,98942.64
2018-02-25T07:18:47.727Z,98937.27
2018-02-25T07:21:13.949Z,98940.75
2018-02-25T07:23:40.240Z,98941.18
2018-02-25T07:26:06.480Z,98933.34
2018-02-25T07:28:32.731Z,98930.17
2018-02-25T07:30:58.973Z,98937.81
2018-02-25T07:33:25.259Z,98937.29
2018-02-25T07:35:51.507Z,98942.42
2018-02-25T07:38:17.794Z,98939.31
2018-02-25T07:40:44.042Z,98940.65
2018-02-25T07:43:10.335Z,98942.95
2018-02-25T07:45:36.591Z,98936.81
2018-02-25T07:48:02.863Z,98937.11
2018-02-25T07:50:29.139Z,98939.92
2018-02-25T07:52:55.376Z,98938.27
2018-02-25T07:55:21.629Z,98938.91
2018-02-25T07:57:47.889Z,98931.83
2018-02-25T08:00:14.152Z,98931.80
2018-02-25T08:02:40.387Z,98926.48
2018-02-25T08:05:06.643Z,98929.41
2018-02-25T08:07:32.851Z,98922.12
2018-02-25T08:09:59.087Z,98930.96
2018-02-25T08:12:25.291Z,98928.03
2018-02-25T08:14:51.525Z,98927.84
2018-02-25T08:17:17.795Z,98929.55
2018-02-25T08:19:44.037Z,98929.12
2018-02-25T08:22:10.332Z,98933.05
2018-02-25T08:24:36.556Z,98931.00
2018-02-25T08:27:02.795Z,98924.28
2018-02-25T08:29:29.030Z,98928.70
2018-02-25T08:31:55.292Z,98930.89
2018-02-25T08:34:21.522Z,98930.31
2018-02-25T08:36:47.810Z,98927.91
2018-02-25T08:39:14.028Z,98925.67
2018-02-25T08:41:40.267Z,98929.69
2018-02-25T08:44:06.540Z,98927.31
2018-02-25T08:46:32.764Z,98934.05
2018-02-25T08:48:59.016Z,98931.63
2018-02-25T08:51:25.295Z,98931.67
2018-02-25T08:53:51.556Z,98935.90
2018-02-25T08:56:17.809Z,98935.90
2018-02-25T08:58:44.434Z,98937.55
2018-02-25T09:01:10.687Z,98929.23
2018-02-25T09:03:36.917Z,98929.80
2018-02-25T09:06:03.164Z,98930.58
2018-02-25T09:08:29.546Z,98933.42
2018-02-25T09:10:55.817Z,98932.04
2018-02-25T09:13:22.044Z,98931.23
2018-02-25T09:15:48.348Z,98923.34
2018-02-25T09:18:14.586Z,98929.53
2018-02-25T09:20:40.924Z,98925.85
2018-02-25T09:23:07.173Z,98926.98
2018-02-25T09:25:33.463Z,98926.37
2018-02-25T09:27:59.713Z,98932.02
2018-02-25T09:30:25.945Z,98930.97
2018-02-25T09:32:52.204Z,98925.58
2018-02-25T09:35:18.434Z,98932.23
2018-02-25T09:37:44.690Z,98927.66
2018-02-25T09:40:10.972Z,98923.66
2018-02-25T09:42:37.213Z,98927.34
2018-02-25T09:45:03.436Z,98926.30
2018-02-25T09:47:29.674Z,98924.02
2018-02-25T09:49:55.896Z,98922.09
2018-02-25T09:52:22.151Z,98930.62
2018-02-25T09:54:48.379Z,98920.97
2018-02-25T09:57:14.596Z,98924.85
2018-02-25T09:59:40.851Z,98911.17
2018-02-25T10:02:07.080Z,98909.77
2018-02-25T10:04:33.335Z,98914.15
2018-02-25T10:06:59.559Z,98915.55
2018-02-25T10:09:25.828Z,98915.69
2018-02-25T10:11:52.056Z,98902.33
2018-02-25T10:14:18.352Z,98912.63
2018-02-25T10:16:44.583Z,98907.23
2018-02-25T10:19:10.814Z,98914.75
2018-02-25T10:21:37.103Z,98904.82
2018-02-25T10:24:03.344Z,98909.43
2018-02-25T10:26:29.583Z,98902.14
2018-02-25T10:28:55.812Z,98900.40
2018-02-25T10:31:22.077Z,98893.20
2018-02-25T10:33:48.309Z,98891.54
2018-02-25T10:36:14.592Z,98891.02
2018-02-25T10:38:40.833Z,98884.30
2018-02-25T10:41:07.091Z,98871.22
2018-02-25T10:43:33.320Z,98871.78
2018-02-25T10:45:59.561Z,98879.55
2018-02-25T10:48:25.828Z,98875.19
2018-02-25T10:50:52.063Z,98866.08
2018-02-25T10:53:18.320Z,98867.05
2018-02-25T10:55:44.544Z,98863.67
2018-02-25T10:58:10.792Z,98866.61
2018-02-25T11:00:37.019Z,98860.21
2018-02-25T11:03:03.264Z,98849.53
2018-02-25T11:05:29.532Z,98854.78
2018-02-25T11:07:55.791Z,98847.80
2018-02-25T11:10:22.068Z,98838.21
2018-02-25T11:12:48.298Z,98842.36
2018-02-25T11:15:14.556Z,98842.13
2018-02-25T11:17:40.832Z,98832.58
2018-02-25T11:20:07.111Z,98822.84
2018-02-25T11:22:33.355Z,98820.09
2018-02-25T11:24:59.608Z,98810.75
2018-02-25T11:27:25.828Z,98818.13
2018-02-25T11:29:52.092Z,98814.69
2018-02-25T11:32:18.321Z,98804.00
2018-02-25T11:34:44.550Z,98807.80
2018-02-25T11:37:10.847Z,98799.89
2018-02-25T11:39:37.075Z,98800.02
2018-02-25T11:42:03.398Z,98800.39
2018-02-25T11:44:29.676Z,98783.81
2018-02-25T11:46:55.975Z,98794.05
2018-02-25T11:49:22.218Z,98800.42
2018-02-25T11:51:48.457Z,98802.91
2018-02-25T11:54:14.683Z,98796.64
2018-02-25T11:56:40.977Z,98793.17
2018-02-25T11:59:07.235Z,98790.53
2018-02-25T12:01:33.503Z,98789.13
2018-02-25T12:03:59.796Z,98786.17
2018-02-25T12:06:26.038Z,98784.70
2018-02-25T12:08:52.343Z,98785.86
2018-02-25T12:11:18.583Z,98789.25
2018-02-25T12:13:45.280Z,98772.98
2018-02-25T12:16:11.507Z,98783.84
2018-02-25T12:18:37.760Z,98785.68
2018-02-25T12:21:03.991Z,98784.62
2018-02-25T12:23:30.207Z,98786.20
2018-02-25T12:25:56.546Z,98773.45
2018-02-25T12:28:22.926Z,98778.19
2018-02-25T12:30:49.249Z,98778.58
2018-02-25T12:33:15.536Z,98779.41
2018-02-25T12:35:41.800Z,98765.77
2018-02-25T12:38:08.036Z,98763.45
2018-02-25T12:40:34.322Z,98766.40
2018-02-25T12:43:00.642Z,98759.72
2018-02-25T12:45:26.884Z,98758.83
2018-02-25T12:47:53.094Z,98757.28
2018-02-25T12:50:19.387Z,98758.39
2018-02-25T12:52:45.715Z,98757.17
2018-02-25T12:55:12.003Z,98750.48
2018-02-25T12:57:38.280Z,98756.11
2018-02-25T13:00:04.545Z,98744.24
2018-02-25T13:02:30.834Z,98745.09
2018-02-25T13:04:57.059Z,98743.82
2018-02-25T13:07:23.327Z,98742.71
2018-02-25T13:09:49.562Z,98738.92
2018-02-25T13:12:15.815Z,98725.39
2018-02-25T13:14:42.056Z,98728.52
2018-02-25T13:17:08.271Z,98732.08
2018-02-25T13:19:34.526Z,98722.77
2018-02-25T13:22:00.773Z,98728.95
2018-02-25T13:24:27.089Z,98730.47
2018-02-25T13:26:53.292Z,98719.78
2018-02-25T13:29:19.566Z,98723.02
2018-02-25T13:31:45.779Z,98715.49
2018-02-25T13:34:12.060Z,98723.80
2018-02-25T13:36:38.328Z,98713.49
2018-02-25T13:39:04.559Z,98723.45
2018-02-25T13:41:30.804Z,98719.16
2018-02-25T13:43:57.069Z,98714.17
2018-02-25T13:46:23.312Z,98727.86
2018-02-25T13:48:49.528Z,98725.75
2018-02-25T13:51:15.789Z,98715.46
2018-02-25T13:53:42.012Z,98716.28
2018-02-25T13:56:08.268Z,98727.51
2018-02-25T13:58:34.501Z,98717.38
2018-02-25T14:01:00.739Z,98712.83
2018-02-25T14:03:27.049Z,98708.16
2018-02-25T14:05:53.272Z,98703.88
2018-02-25T14:08:19.519Z,98706.22
2018-02-25T14:10:46.728Z,98710.58
2018-02-25T14:13:12.973Z,98705.00
2018-02-25T14:15:39.192Z,98704.89
2018-02-25T14:18:05.428Z,98712.87
2018-02-25T14:20:31.745Z,98714.45
2018-02-25T14:22:58.028Z,98713.57
2018-02-25T14:25:24.260Z,98713.20
2018-02-25T14:27:50.507Z,98713.24
2018-02-25T14:30:16.780Z,98710.77
2018-02-25T14:32:43.028Z,98715.59
2018-02-25T14:35:09.318Z,98714.42
2018-02-25T14:37:35.577Z,98715.90
2018-02-25T14:40:01.868Z,98714.27
2018-02-25T14:42:28.131Z,98721.50
2018-02-25T14:44:54.373Z,98721.48
2018-02-25T14:47:20.596Z,98715.45
2018-02-25T14:49:46.886Z,98721.56
2018-02-25T14:52:13.124Z,98723.22
2018-02-25T14:54:39.385Z,98723.31
2018-02-25T14:57:05.668Z,98720.28
2018-02-25T14:59:31.986Z,98719.33
2018-02-25T15:01:58.256Z,98718.16
2018-02-25T15:04:24.472Z,98723.73
2018-02-25T15:06:50.792Z,98715.39
2018-02-25T15:09:17.006Z,98719.22
2018-02-25T15:11:43.257Z,98725.09
2018-02-25T15:14:09.487Z,98717.53
2018-02-25T15:16:35.742Z,98722.77
2018-02-25T15:19:02.021Z,98718.63
2018-02-25T15:21:28.286Z,98720.33
2018-02-25T15:23:54.546Z,98720.09
2018-02-25T15:26:20.791Z,98718.41
2018-02-25T15:28:47.102Z,98717.66
2018-02-25T15:31:13.331Z,98714.75
2018-02-25T15:33:39.632Z,98710.84
2018-02-25T15:36:05.892Z,98713.33
2018-02-25T15:38:32.240Z,98711.55
2018-02-25T15:40:58.541Z,98713.02
2018-02-25T15:43:24.767Z,98717.42
2018-02-25T15:45:51.024Z,98713.17
2018-02-25T15:48:17.246Z,98714.72
2018-02-25T15:50:43.484Z,98720.52
2018-02-25T15:53:09.723Z,98726.61
2018-02-25T15:55:36.000Z,98728.36
2018-02-25T15:58:02.260Z,98731.57
2018-02-25T16:00:28.610Z,98724.05
2018-02-25T16:02:56.040Z,98731.31
2018-02-25T16:05:22.295Z,98737.73
2018-02-25T16:07:48.555Z,98734.96
2018-02-25T16:10:14.884Z,98739.47
2018-02-25T16:12:41.151Z,98738.01
2018-02-25T16:15:07.406Z,98739.62
2018-02-25T16:17:33.677Z,98739.16
2018-02-25T16:19:59.952Z,98743.75
2018-02-25T16:22:26.255Z,98743.60
2018-02-25T16:24:52.523Z,98740.17
2018-02-25T16:27:18.837Z,98748.22
2018-02-25T16:29:45.095Z,98748.07
2018-02-25T16:32:11.347Z,98751.99
2018-02-25T16:34:37.605Z,98750.15
2018-02-25T16:37:03.876Z,98752.20
2018-02-25T16:39:30.204Z,98753.09
2018-02-25T16:41:56.448Z,98747.39
2018-02-25T16:44:22.717Z,98757.25
2018-02-25T16:46:49.097Z,98759.28
2018-02-25T16:49:15.377Z,98756.14
2018-02-25T16:51:41.599Z,98762.00
2018-02-25T16:54:07.856Z,98760.04
2018-02-25T16:56:34.112Z,98762.53
2018-02-25T16:59:00.392Z,98764.28
2018-02-25T17:01:26.640Z,98771.38
2018-02-25T17:03:52.883Z,98774.23
2018-02-25T17:06:19.137Z,98776.08
2018-02-25T17:08:45.367Z,98780.86
2018-02-25T17:11:11.631Z,98785.06
2018-02-25T17:13:37.907Z,98781.92
2018-02-25T17:16:04.173Z,98780.95
2018-02-25T17:18:30.438Z,98787.75
2018-02-25T17:20:56.713Z,98789.96
2018-02-25T17:23:22.980Z,98794.88
2018-02-25T17:25:49.288Z,98792.16
2018-02-25T17:28:15.601Z,98795.80
2018-02-25T17:30:41.872Z,98792.52
2018-02-25T17:33:08.129Z,98794.09
2018-02-25T17:35:34.372Z,98795.92
2018-02-25T17:38:00.631Z,98796.87
2018-02-25T17:40:26.867Z,98790.76
2018-02-25T17:42:53.221Z,98792.64
2018-02-25T17:45:19.527Z,98793.30
2018-02-25T17:47:45.772Z,98793.84
2018-02-25T17:50:12.032Z,98795.26
2018-02-25T17:52:38.403Z,98787.11
2018-02-25T17:55:04.647Z,98788.34
2018-02-25T17:57:30.903Z,98790.66
2018-02-25T17:59:57.482Z,98793.55
2018-02-25T18:02:23.717Z,98795.26
2018-02-25T18:04:49.952Z,98794.85
2018-02-25T18:07:16.224Z,98797.82
2018-02-25T18:09:42.579Z,98792.87
2018-02-25T18:12:08.831Z,98790.66
2018-02-25T18:14:35.080Z,98786.20
2018-02-25T18:17:01.352Z,98788.63
2018-02-25T18:19:27.686Z,98791.77
2018-02-25T18:21:54.024Z,98790.41
2018-02-25T18:24:20.270Z,98789.57
2018-02-25T18:26:46.516Z,98797.18
2018-02-25T18:29:12.859Z,98799.66
2018-02-25T18:31:39.143Z,98789.53
2018-02-25T18:34:05.472Z,98793.20
2018-02-25T18:36:31.709Z,98794.18
2018-02-25T18:38:58.666Z,98797.12
2018-02-25T18:41:24.955Z,98789.52
2018-02-25T18:43:51.208Z,98792.60
2018-02-25T18:46:17.448Z,98794.83
2018-02-25T18:48:43.796Z,98796.00
2018-02-25T18:51:10.272Z,98806.84
2018-02-25T18:53:36.577Z,98797.13
2018-02-25T18:56:02.857Z,98805.09
2018-02-25T18:58:29.360Z,98806.23
2018-02-25T19:00:55.745Z,98804.88
2018-02-25T19:03:22.124Z,98793.12
2018-02-25T19:05:48.488Z,98796.67
2018-02-25T19:08:14.820Z,98788.45
2018-02-25T19:10:41.287Z,98798.00
2018-02-25T19:13:07.576Z,98802.90
2018-02-25T19:15:33.858Z,98795.48
2018-02-25T19:18:00.449Z,98789.41
2018-02-25T19:20:26.697Z,98791.94
2018-02-25T19:22:52.995Z,98790.38
2018-02-25T19:25:19.482Z,98794.09
2018-02-25T19:27:45.720Z,98787.06
2018-02-25T19:30:12.360Z,98792.70
2018-02-25T19:32:38.637Z,98783.73
2018-02-25T19:35:05.051Z,98788.55
2018-02-25T19:37:37.367Z,98785.86
2018-02-25T19:40:03.668Z,98789.75
2018-02-25T19:42:29.993Z,98791.50
2018-02-25T19:44:56.472Z,98795.56
2018-02-25T19:47:22.699Z,98788.22
2018-02-25T19:49:49.005Z,98786.52
2018-02-25T19:54:50.824Z,98795.48
2018-02-25T19:57:17.250Z,98782.93
2018-02-25T19:59:43.505Z,98787.66
2018-02-25T20:02:09.802Z,98782.88
2018-02-25T20:04:36.533Z,98785.10
2018-02-25T20:07:02.788Z,98786.95
2018-02-25T20:09:29.236Z,98782.12
2018-02-25T20:11:55.827Z,98787.19
2018-02-25T20:14:22.173Z,98786.18
2018-02-25T20:16:48.629Z,98785.50
2018-02-25T20:19:14.927Z,98778.73
2018-02-25T20:21:41.168Z,98784.78
2018-02-25T20:24:07.407Z,98786.20
2018-02-25T20:26:33.623Z,98785.79
2018-02-25T20:28:59.913Z,98786.42
2018-02-25T20:31:26.162Z,98776.72
2018-02-25T20:33:52.448Z,98782.58
2018-02-25T20:36:18.677Z,98784.39
2018-02-25T20:38:44.935Z,98778.47
2018-02-25T20:41:11.204Z,98777.75
2018-02-25T20:43:37.484Z,98774.03
2018-02-25T20:46:03.764Z,98774.64
2018-02-25T20:48:30.009Z,98775.99
2018-02-25T20:50:56.451Z,98771.49
2018-02-25T20:53:22.684Z,98772.56
2018-02-25T20:55:48.939Z,98772.52
2018-02-25T20:58:15.263Z,98768.89
2018-02-25T21:00:41.736Z,98770.09
2018-02-25T21:03:07.989Z,98769.34
2018-02-25T21:05:34.215Z,98771.50
2018-02-25T21:08:00.484Z,98767.59
2018-02-25T21:10:26.753Z,98769.75
2018-02-25T21:12:53.007Z,98771.71
2018-02-25T21:15:19.253Z,98773.58
2018-02-25T21:17:45.542Z,98774.55
2018-02-25T21:20:12.209Z,98774.49
2018-02-25T21:22:38.483Z,98776.30
2018-02-25T21:25:04.758Z,98774.08
2018-02-25T21:27:31.137Z,98776.61
2018-02-25T21:30:06.695Z,98778.63
2018-02-25T21:32:32.969Z,98775.14
2018-02-25T21:34:59.232Z,98776.66
2018-02-25T21:37:25.509Z,98772.61
2018-02-25T21:39:51.771Z,98773.08
2018-02-25T21:42:18.167Z,98776.42
2018-02-25T21:44:44.426Z,98773.71
2018-02-25T21:47:10.656Z,98772.36
2018-02-25T21:49:37.076Z,98777.35
2018-02-25T21:52:03.424Z,98775.84
2018-02-25T21:54:35.711Z,98771.59
2018-02-25T21:57:08.169Z,98773.29
2018-02-25T21:59:40.424Z,98777.91
2018-02-25T22:02:12.839Z,98781.52
2018-02-25T22:04:39.075Z,98782.23
2018-02-25T22:07:05.364Z,98774.02
2018-02-25T22:09:31.657Z,98780.02
2018-02-25T22:11:57.929Z,98776.59
2018-02-25T22:14:24.343Z,98780.05
2018-02-25T22:16:50.631Z,98774.94
2018-02-25T22:19:16.895Z,98778.59
2018-02-25T22:21:43.172Z,98772.49
2018-02-25T22:24:09.514Z,98778.22
2018-02-25T22:26:35.878Z,98774.95
2018-02-25T22:29:02.325Z,98777.15
2018-02-25T22:31:28.564Z,98767.69
2018-02-25T22:33:54.940Z,98763.98
2018-02-25T22:36:21.199Z,98767.07
2018-02-25T22:38:47.464Z,98761.63
2018-02-25T22:41:13.784Z,98763.63
2018-02-25T22:43:40.042Z,98762.53
2018-02-25T22:46:06.579Z,98763.38
2018-02-25T22:48:32.836Z,98761.78
2018-02-25T22:50:59.095Z,98759.92
2018-02-25T22:53:25.501Z,98761.25
2018-02-25T22:55:51.771Z,98756.69
2018-02-25T22:58:18.231Z,98758.61
2018-02-25T23:00:44.521Z,98768.88
2018-02-25T23:03:10.804Z,98764.12
2018-02-25T23:05:37.107Z,98762.96
2018-02-25T23:08:03.380Z,98760.03
2018-02-25T23:10:29.730Z,98759.89
2018-02-25T23:12:56.016Z,98766.33
2018-02-25T23:15:22.666Z,98767.92
2018-02-25T23:17:48.939Z,98772.39
2018-02-25T23:20:15.195Z,98771.93
2018-02-25T23:22:41.481Z,98765.64
2018-02-25T23:25:07.737Z,98770.08
2018-02-25T23:27:34.002Z,98767.32
2018-02-25T23:30:00.277Z,98769.16
2018-02-25T23:32:26.511Z,98770.36
2018-02-25T23:34:52.775Z,98764.64
2018-02-25T23:37:19.011Z,98761.59
2018-02-25T23:39:45.368Z,98759.66
2018-02-25T23:42:11.608Z,98757.36
2018-02-25T23:44:37.837Z,98758.73
2018-02-25T23:47:04.112Z,98755.67
2018-02-25T23:49:30.420Z,98753.50
2018-02-25T23:51:56.691Z,98753.19
2018-02-25T23:54:22.927Z,98753.52
2018-02-25T23:56:49.199Z,98756.05
2018-02-25T23:59:15.612Z,98756.09
